Terminal Aerodrome Forecast
Issued by NWS

Home | Current Version | Previous Version | Text Only | Print | Product List | Glossary On
Versions: 1 2 3 4 5 6 7 8 9 10 11 12 13 14 15 16 17
104
FTUS42 KMHX 220540
TAFPGV
TAF
KPGV 220540Z 2206/2306 00000KT 1SM BR OVC007
      TEMPO 2206/2209 1/2SM FG OVC004
     FM220900 00000KT 1/4SM FG OVC002
     FM221300 00000KT 1SM BR BKN009
     FM221400 00000KT P6SM SKC
     FM230500 00000KT 2SM BR FEW250
      AMD LTD TO CLD VIS AND WIND=

USA.gov is the U.S. government's official web portal to all federal, state and local government web resources and services.